Time;durP1;ratioP1;P1;durP2;ratioP2;P2;SDS_P1;SDS_P2;PMS_P1;PMS_P2;Temp;Humidity;BMP_temperature;BMP_pressure;BME280_temperature;BME280_humidity;BME280_pressure;Samples;Min_cycle;Max_cycle;Signal;HPM_P1;HPM_P2
2021/06/07 00:01:40;;;;;;;39.30;22.70;;;17.00;99.90;;;;;;5069274;28;20920;-50
2021/06/07 00:04:08;;;;;;;36.40;21.25;;;17.00;99.90;;;;;;5057468;28;20459;-49
2021/06/07 00:06:34;;;;;;;44.13;24.20;;;17.00;99.90;;;;;;5049680;28;20855;-53
2021/06/07 00:09:01;;;;;;;39.53;23.25;;;17.00;99.90;;;;;;5050154;28;20386;-50
2021/06/07 00:11:27;;;;;;;43.90;24.03;;;17.00;99.90;;;;;;5049307;28;20380;-52
2021/06/07 00:13:53;;;;;;;43.08;23.70;;;16.90;99.90;;;;;;5050143;28;20393;-55
2021/06/07 00:16:19;;;;;;;40.53;23.13;;;16.90;99.90;;;;;;5050546;28;20519;-49
2021/06/07 00:18:45;;;;;;;46.40;24.60;;;16.90;99.90;;;;;;5049211;28;20378;-51
2021/06/07 00:21:17;;;;;;;40.65;22.48;;;16.90;99.90;;;;;;5065398;28;20575;-49
2021/06/07 00:23:45;;;;;;;46.27;25.00;;;16.90;99.90;;;;;;5069209;28;20495;-50
2021/06/07 00:26:11;;;;;;;43.92;24.20;;;16.80;99.90;;;;;;5055119;28;20398;-49
2021/06/07 00:28:36;;;;;;;41.92;22.23;;;16.90;99.90;;;;;;5047897;28;20385;-50
2021/06/07 00:31:04;;;;;;;43.78;24.15;;;16.80;99.90;;;;;;5049945;28;20397;-50
2021/06/07 00:33:31;;;;;;;41.17;21.75;;;16.80;99.90;;;;;;5049016;28;20388;-50
2021/06/07 00:35:57;;;;;;;43.95;24.30;;;16.80;99.90;;;;;;5049602;28;20377;-50
2021/06/07 00:38:23;;;;;;;47.67;24.70;;;16.80;99.90;;;;;;5069200;28;20467;-56
2021/06/07 00:40:49;;;;;;;44.80;23.77;;;16.80;99.90;;;;;;5069038;28;21027;-50
2021/06/07 00:43:15;;;;;;;43.88;23.25;;;16.80;99.90;;;;;;5066252;28;20382;-50
2021/06/07 00:45:41;;;;;;;45.83;24.20;;;16.80;99.90;;;;;;5048552;28;20464;-50
2021/06/07 00:48:09;;;;;;;46.13;24.27;;;16.80;99.90;;;;;;5049936;28;20568;-50
2021/06/07 00:50:38;;;;;;;44.83;23.73;;;16.80;99.90;;;;;;5048959;28;20435;-50
2021/06/07 00:53:06;;;;;;;44.50;24.42;;;16.70;99.90;;;;;;5049852;28;20428;-50
2021/06/07 00:55:38;;;;;;;48.60;24.83;;;16.80;99.90;;;;;;5048778;28;20377;-50
2021/06/07 00:58:05;;;;;;;46.47;23.55;;;16.80;99.90;;;;;;5048288;28;20798;-50
2021/06/07 01:00:32;;;;;;;42.45;23.65;;;16.90;99.90;;;;;;5048760;28;20850;-51
2021/06/07 01:02:59;;;;;;;45.28;23.40;;;16.90;99.90;;;;;;5049627;28;20466;-50
2021/06/07 01:05:26;;;;;;;50.05;23.40;;;16.90;99.90;;;;;;5049392;28;20374;-57
2021/06/07 01:07:52;;;;;;;49.80;24.55;;;17.00;99.90;;;;;;5048849;28;20465;-50
2021/06/07 01:10:18;;;;;;;47.08;24.13;;;16.90;99.90;;;;;;5049611;28;20381;-50
2021/06/07 01:12:44;;;;;;;44.53;24.65;;;16.90;99.90;;;;;;5048861;28;20678;-49
2021/06/07 01:15:11;;;;;;;48.70;25.23;;;16.90;99.90;;;;;;5049384;28;20369;-51
2021/06/07 01:17:37;;;;;;;47.47;23.90;;;17.00;99.90;;;;;;5048732;28;20378;-49
2021/06/07 01:20:06;;;;;;;46.78;23.60;;;17.00;99.90;;;;;;5049285;28;20385;-50
2021/06/07 01:22:31;;;;;;;45.60;23.40;;;17.00;99.90;;;;;;5048164;28;20404;-51
2021/06/07 01:24:57;;;;;;;46.53;25.43;;;17.00;99.90;;;;;;5049492;28;20390;-50
2021/06/07 01:27:23;;;;;;;45.25;23.60;;;17.00;99.90;;;;;;5049450;28;20852;-50
2021/06/07 01:29:49;;;;;;;52.13;26.17;;;17.70;99.90;;;;;;5048304;28;20385;-50
2021/06/07 01:32:15;;;;;;;49.00;24.52;;;16.80;99.90;;;;;;5048005;28;20405;-50
2021/06/07 01:34:41;;;;;;;49.22;24.65;;;16.80;99.90;;;;;;5048463;28;20381;-49
2021/06/07 01:37:07;;;;;;;53.33;24.75;;;16.70;99.90;;;;;;5049033;28;20953;-50
2021/06/07 01:39:33;;;;;;;46.90;24.70;;;16.70;99.90;;;;;;5048638;28;20377;-49
2021/06/07 01:41:59;;;;;;;48.03;24.15;;;16.60;99.90;;;;;;5049152;28;20481;-50
2021/06/07 01:44:25;;;;;;;54.67;25.98;;;16.70;99.90;;;;;;5049129;28;20378;-58
2021/06/07 01:46:50;;;;;;;51.23;25.00;;;16.60;99.90;;;;;;5048973;28;20485;-51
2021/06/07 01:49:16;;;;;;;55.17;25.83;;;16.70;99.90;;;;;;5051859;28;20464;-50
2021/06/07 01:51:42;;;;;;;52.50;26.38;;;16.70;99.90;;;;;;5051969;28;20386;-50
2021/06/07 01:54:08;;;;;;;51.28;24.42;;;16.70;99.90;;;;;;5052574;28;20744;-50
2021/06/07 01:56:35;;;;;;;53.95;26.63;;;16.70;99.90;;;;;;5052169;28;20381;-50
2021/06/07 01:59:01;;;;;;;53.30;25.17;;;16.70;99.90;;;;;;5052840;28;20414;-49
2021/06/07 02:01:27;;;;;;;52.45;23.67;;;16.70;99.90;;;;;;5051717;28;20498;-56
2021/06/07 02:03:52;;;;;;;48.03;24.20;;;16.60;99.90;;;;;;5052085;28;20386;-50
2021/06/07 02:06:24;;;;;;;54.33;26.30;;;16.60;99.90;;;;;;5051429;28;20481;-50
2021/06/07 02:08:52;;;;;;;49.40;24.13;;;16.10;99.90;;;;;;5052160;28;20452;-50
2021/06/07 02:11:27;;;;;;;52.85;25.63;;;16.60;99.90;;;;;;5052442;28;20439;-49
2021/06/07 02:13:57;;;;;;;53.03;25.20;;;16.60;99.90;;;;;;5052195;28;20402;-51
2021/06/07 02:16:26;;;;;;;52.47;25.80;;;16.60;99.90;;;;;;5052250;28;20438;-49
2021/06/07 02:18:52;;;;;;;54.37;26.33;;;16.60;99.90;;;;;;5052186;28;20403;-49
2021/06/07 02:21:21;;;;;;;56.50;24.27;;;16.60;99.90;;;;;;5051859;28;20423;-52
2021/06/07 02:23:47;;;;;;;58.58;27.13;;;16.60;99.90;;;;;;5051582;28;20398;-50
2021/06/07 02:26:14;;;;;;;54.65;25.98;;;16.60;99.90;;;;;;5050741;28;20374;-50
2021/06/07 02:28:49;;;;;;;55.33;26.38;;;16.60;99.90;;;;;;5051387;28;20427;-50
2021/06/07 02:31:15;;;;;;;53.28;26.02;;;16.50;99.90;;;;;;5051824;28;20916;-49
2021/06/07 02:33:41;;;;;;;56.33;26.60;;;16.40;99.90;;;;;;5051113;28;20460;-50
2021/06/07 02:36:07;;;;;;;61.95;27.90;;;16.40;99.90;;;;;;5051697;28;20379;-50
2021/06/07 02:38:32;;;;;;;54.50;26.63;;;16.40;99.90;;;;;;5051335;28;20392;-50
2021/06/07 02:40:58;;;;;;;55.75;26.15;;;16.50;99.90;;;;;;5050486;28;20386;-50
2021/06/07 02:43:24;;;;;;;52.77;26.03;;;16.50;99.90;;;;;;5051870;28;20981;-49
2021/06/07 02:45:50;;;;;;;57.55;26.45;;;16.60;99.90;;;;;;5050995;28;20385;-49
2021/06/07 02:48:16;;;;;;;55.60;25.70;;;16.50;99.90;;;;;;5051673;28;20721;-49
2021/06/07 02:50:44;;;;;;;55.35;27.27;;;16.50;99.90;;;;;;5050629;28;20385;-49
2021/06/07 02:53:10;;;;;;;58.70;26.77;;;16.50;99.90;;;;;;5051310;28;20949;-49
2021/06/07 02:55:39;;;;;;;59.65;26.85;;;16.60;99.90;;;;;;5050857;28;20373;-49
2021/06/07 02:58:06;;;;;;;58.63;25.07;;;16.60;99.90;;;;;;5051602;28;20420;-50
2021/06/07 03:00:33;;;;;;;58.92;25.85;;;16.70;99.90;;;;;;5050437;28;20382;-52
2021/06/07 03:03:00;;;;;;;57.03;27.58;;;16.70;99.90;;;;;;5051105;28;20432;-50
2021/06/07 03:05:27;;;;;;;55.55;26.30;;;16.60;99.90;;;;;;5051350;28;20393;-57
2021/06/07 03:07:53;;;;;;;55.88;26.58;;;16.60;99.90;;;;;;5051180;28;20386;-50
2021/06/07 03:10:19;;;;;;;58.00;26.75;;;16.70;99.90;;;;;;5051679;28;20443;-49
2021/06/07 03:12:46;;;;;;;53.25;26.13;;;16.80;99.90;;;;;;5050511;28;20941;-49
2021/06/07 03:15:14;;;;;;;57.83;27.15;;;16.80;99.90;;;;;;5050894;28;20396;-49
2021/06/07 03:17:40;;;;;;;56.03;26.13;;;16.80;99.90;;;;;;5050329;28;20852;-49
2021/06/07 03:20:09;;;;;;;59.00;26.15;;;16.80;99.90;;;;;;5051200;28;20925;-51
2021/06/07 03:22:35;;;;;;;50.50;23.95;;;16.90;99.90;;;;;;5050311;28;20416;-49
2021/06/07 03:25:02;;;;;;;51.17;24.90;;;16.90;99.90;;;;;;5050846;28;20739;-49
2021/06/07 03:27:27;;;;;;;53.72;26.27;;;16.80;99.90;;;;;;5050918;28;20382;-57
2021/06/07 03:29:53;;;;;;;62.72;27.27;;;16.60;99.90;;;;;;5050532;28;20381;-49
2021/06/07 03:32:19;;;;;;;50.15;25.40;;;16.70;99.90;;;;;;5051080;28;20423;-50
2021/06/07 03:34:44;;;;;;;59.40;26.47;;;16.60;99.90;;;;;;5050072;28;20384;-49
2021/06/07 03:37:10;;;;;;;57.58;27.00;;;16.60;99.90;;;;;;5050617;28;20381;-50
2021/06/07 03:39:36;;;;;;;60.50;27.67;;;16.60;99.90;;;;;;5049961;28;20380;-49
2021/06/07 03:42:03;;;;;;;56.65;27.73;;;16.60;99.90;;;;;;5050723;28;20451;-49
2021/06/07 03:44:29;;;;;;;58.80;28.10;;;16.60;99.90;;;;;;5050176;28;20382;-57
2021/06/07 03:46:54;;;;;;;59.28;26.92;;;16.50;99.90;;;;;;5049093;28;20377;-49
2021/06/07 03:49:20;;;;;;;56.50;26.53;;;16.50;99.90;;;;;;5050527;28;20392;-49
2021/06/07 03:51:47;;;;;;;62.85;28.02;;;16.60;99.90;;;;;;5052383;28;20866;-49
2021/06/07 03:54:14;;;;;;;56.78;26.17;;;16.60;99.90;;;;;;5050378;28;20733;-49
2021/06/07 03:56:40;;;;;;;57.67;27.25;;;16.60;99.90;;;;;;5049748;28;20413;-49
2021/06/07 03:59:06;;;;;;;59.67;26.90;;;16.60;99.90;;;;;;5050305;28;20409;-49
2021/06/07 04:01:31;;;;;;;58.28;27.10;;;16.60;99.90;;;;;;5047967;28;20429;-56
2021/06/07 04:03:57;;;;;;;56.17;28.20;;;16.60;99.90;;;;;;5050380;28;20396;-52
2021/06/07 04:06:24;;;;;;;63.67;27.60;;;16.60;99.90;;;;;;5049976;28;20378;-49
2021/06/07 04:08:55;;;;;;;56.42;27.38;;;16.60;99.90;;;;;;5048351;28;20402;-50
2021/06/07 04:11:22;;;;;;;62.40;27.40;;;16.60;99.90;;;;;;5049715;28;20383;-49
2021/06/07 04:13:47;;;;;;;59.47;26.30;;;16.40;99.90;;;;;;5049222;28;20453;-49
2021/06/07 04:16:13;;;;;;;61.58;26.90;;;16.40;99.90;;;;;;5049844;28;20385;-50
2021/06/07 04:18:39;;;;;;;50.90;25.45;;;16.50;99.90;;;;;;5049232;28;20389;-49
2021/06/07 04:21:04;;;;;;;57.50;26.50;;;16.60;99.90;;;;;;5049902;28;20439;-49
2021/06/07 04:23:30;;;;;;;57.13;27.02;;;16.60;99.90;;;;;;5049462;28;20385;-57
2021/06/07 04:25:55;;;;;;;54.27;25.27;;;16.60;99.90;;;;;;5049524;28;20443;-50
2021/06/07 04:28:21;;;;;;;55.90;25.80;;;16.60;99.90;;;;;;5049905;28;20450;-51
2021/06/07 04:30:47;;;;;;;57.03;27.45;;;16.50;99.90;;;;;;5049121;28;20396;-49
2021/06/07 04:33:13;;;;;;;62.07;27.23;;;16.50;99.90;;;;;;5049536;28;20423;-50
2021/06/07 04:35:38;;;;;;;59.50;26.90;;;16.50;99.90;;;;;;5048921;28;20390;-50
2021/06/07 04:38:04;;;;;;;54.65;25.65;;;16.50;99.90;;;;;;5049598;28;20378;-49
2021/06/07 04:40:32;;;;;;;56.67;26.60;;;16.60;99.90;;;;;;5049533;28;20385;-57
2021/06/07 04:43:01;;;;;;;64.00;27.02;;;16.60;99.90;;;;;;5049570;28;20403;-49
2021/06/07 04:45:28;;;;;;;53.92;26.98;;;16.50;99.90;;;;;;5049554;28;20763;-49
2021/06/07 04:47:54;;;;;;;65.88;28.02;;;16.50;99.90;;;;;;5049033;28;20377;-49
2021/06/07 04:50:22;;;;;;;59.93;27.37;;;16.40;99.90;;;;;;5054976;28;20468;-49
2021/06/07 04:53:02;;;;;;;61.88;27.42;;;16.40;99.90;;;;;;5057285;28;20783;-50
2021/06/07 04:55:41;;;;;;;53.28;25.10;;;16.50;99.90;;;;;;5067674;28;20855;-49
2021/06/07 04:58:11;;;;;;;57.53;27.63;;;16.60;99.90;;;;;;5055600;28;20378;-49
2021/06/07 05:00:37;;;;;;;57.95;26.60;;;16.60;99.90;;;;;;5059100;28;20739;-49
2021/06/07 05:03:03;;;;;;;57.40;25.27;;;16.50;99.90;;;;;;5065927;28;20395;-50
2021/06/07 05:05:29;;;;;;;55.05;26.60;;;16.50;99.90;;;;;;5069506;28;20459;-56
2021/06/07 05:07:55;;;;;;;52.15;24.83;;;16.40;99.90;;;;;;5066024;28;20477;-51
2021/06/07 05:10:21;;;;;;;58.03;25.85;;;16.40;99.90;;;;;;5059952;28;20699;-50
2021/06/07 05:12:47;;;;;;;58.33;24.55;;;16.40;99.90;;;;;;5049755;28;20451;-49
2021/06/07 05:15:14;;;;;;;59.30;26.07;;;16.40;99.90;;;;;;5057645;28;20874;-50
2021/06/07 05:17:41;;;;;;;57.33;25.42;;;16.50;99.90;;;;;;5050933;28;20394;-53
2021/06/07 05:20:09;;;;;;;55.28;25.48;;;16.50;99.90;;;;;;5063517;28;20468;-50
2021/06/07 05:22:35;;;;;;;53.97;25.92;;;16.80;99.90;;;;;;5064739;28;20525;-50
2021/06/07 05:25:02;;;;;;;56.63;25.02;;;16.60;99.90;;;;;;5055835;28;20382;-50
2021/06/07 05:27:27;;;;;;;51.10;24.88;;;16.70;99.90;;;;;;5056342;28;20385;-50
2021/06/07 05:29:53;;;;;;;48.05;23.85;;;16.80;99.90;;;;;;5084271;28;20409;-49
2021/06/07 05:32:19;;;;;;;48.57;23.27;;;16.80;99.90;;;;;;5052860;28;20403;-50
2021/06/07 05:34:44;;;;;;;49.83;23.65;;;16.80;99.90;;;;;;5063967;28;20387;-50
2021/06/07 05:37:10;;;;;;;49.20;22.87;;;17.00;99.90;;;;;;5073244;28;20425;-50
2021/06/07 05:39:36;;;;;;;54.70;23.10;;;17.10;99.90;;;;;;5071999;28;20375;-49
2021/06/07 05:42:02;;;;;;;48.17;23.98;;;17.10;99.90;;;;;;5061863;28;20419;-50
2021/06/07 05:44:28;;;;;;;51.78;25.30;;;17.00;99.90;;;;;;5058050;28;20396;-52
2021/06/07 05:46:54;;;;;;;51.90;23.33;;;17.10;99.90;;;;;;5068567;28;20462;-49
2021/06/07 05:49:20;;;;;;;43.67;21.88;;;17.20;99.90;;;;;;5073139;28;20415;-49
2021/06/07 05:51:46;;;;;;;45.17;22.02;;;17.20;99.90;;;;;;5057391;28;20902;-50
2021/06/07 05:54:12;;;;;;;50.80;23.83;;;17.10;99.90;;;;;;5071738;28;20390;-49
2021/06/07 05:56:38;;;;;;;48.23;22.50;;;17.00;99.90;;;;;;5071156;28;20746;-50
2021/06/07 05:59:08;;;;;;;50.97;21.80;;;17.00;99.90;;;;;;5084186;28;20396;-49
2021/06/07 06:01:34;;;;;;;58.00;24.67;;;16.90;99.90;;;;;;5063315;28;20525;-57
2021/06/07 06:04:00;;;;;;;49.97;22.30;;;16.90;99.90;;;;;;5072392;28;20382;-49
2021/06/07 06:06:26;;;;;;;49.83;22.50;;;17.00;99.90;;;;;;5072168;28;20896;-51
2021/06/07 06:08:53;;;;;;;54.85;23.45;;;17.10;99.90;;;;;;5070562;28;20381;-50
2021/06/07 06:11:20;;;;;;;49.00;23.48;;;17.10;99.90;;;;;;5072355;28;20384;-50
2021/06/07 06:13:47;;;;;;;56.25;23.23;;;17.20;99.90;;;;;;5071190;28;20673;-51
2021/06/07 06:16:13;;;;;;;47.92;21.45;;;17.20;99.90;;;;;;5068750;28;20535;-49
2021/06/07 06:18:39;;;;;;;50.30;22.65;;;17.10;99.90;;;;;;5058106;28;20473;-50
2021/06/07 06:21:06;;;;;;;46.27;23.10;;;17.00;99.90;;;;;;5072199;28;20877;-50
2021/06/07 06:23:32;;;;;;;46.00;22.42;;;16.90;99.90;;;;;;5071665;28;20404;-55
2021/06/07 06:25:58;;;;;;;45.78;22.63;;;16.90;99.90;;;;;;5055133;28;20397;-50
2021/06/07 06:28:24;;;;;;;45.83;22.97;;;16.90;99.90;;;;;;5072173;28;20790;-50
2021/06/07 06:30:50;;;;;;;45.28;21.13;;;17.10;99.90;;;;;;5070418;28;20881;-53
2021/06/07 06:33:15;;;;;;;40.60;20.02;;;17.20;99.90;;;;;;5072484;28;20394;-50
2021/06/07 06:35:41;;;;;;;37.45;18.38;;;17.30;99.90;;;;;;5071016;28;20376;-50
2021/06/07 06:38:07;;;;;;;40.97;17.85;;;17.10;99.90;;;;;;5071522;28;20380;-50
2021/06/07 06:40:35;;;;;;;38.30;19.43;;;17.10;99.90;;;;;;5071782;28;20472;-57
2021/06/07 06:43:03;;;;;;;35.80;18.15;;;17.10;99.90;;;;;;5071327;28;20514;-50
2021/06/07 06:45:30;;;;;;;39.13;18.13;;;17.20;99.90;;;;;;5070519;28;20394;-50
2021/06/07 06:47:57;;;;;;;38.50;19.00;;;17.20;99.90;;;;;;5071258;28;20387;-50
2021/06/07 06:50:27;;;;;;;35.35;17.60;;;17.20;99.90;;;;;;5071597;28;20498;-49
2021/06/07 06:52:53;;;;;;;36.03;17.25;;;17.20;99.90;;;;;;5070780;28;20451;-50
2021/06/07 06:55:19;;;;;;;30.13;16.23;;;17.30;99.90;;;;;;5071584;28;20376;-53
2021/06/07 06:57:45;;;;;;;34.33;16.30;;;17.40;99.90;;;;;;5070588;28;20426;-49
2021/06/07 07:00:12;;;;;;;29.50;15.43;;;17.50;99.90;;;;;;5070904;28;20388;-49
2021/06/07 07:02:38;;;;;;;29.70;14.35;;;17.60;99.90;;;;;;5069949;28;20766;-50
2021/06/07 07:05:05;;;;;;;34.50;16.00;;;17.50;99.90;;;;;;5071050;28;20371;-50
2021/06/07 07:07:31;;;;;;;34.90;16.23;;;17.40;99.90;;;;;;5070679;28;20428;-49
2021/06/07 07:09:57;;;;;;;35.78;17.00;;;17.30;99.90;;;;;;5070543;28;20384;-50
2021/06/07 07:12:26;;;;;;;33.88;16.50;;;17.40;99.90;;;;;;5070602;28;20475;-50
2021/06/07 07:14:55;;;;;;;30.03;15.57;;;17.50;99.90;;;;;;5069798;28;20394;-50
2021/06/07 07:17:21;;;;;;;30.15;16.25;;;17.40;99.90;;;;;;5070407;28;20402;-50
2021/06/07 07:19:48;;;;;;;31.17;16.00;;;17.40;99.90;;;;;;5070009;28;20463;-50
2021/06/07 07:22:15;;;;;;;33.03;16.67;;;17.50;99.90;;;;;;5070557;28;20404;-49
2021/06/07 07:24:44;;;;;;;28.90;15.90;;;17.60;99.90;;;;;;5069038;28;20472;-50
2021/06/07 07:27:11;;;;;;;29.25;15.05;;;17.70;99.90;;;;;;5059318;28;20384;-49
2021/06/07 07:29:38;;;;;;;28.67;16.00;;;17.60;99.90;;;;;;5069833;28;20449;-51
2021/06/07 07:32:05;;;;;;;27.45;14.52;;;17.80;99.90;;;;;;5070475;28;20394;-50
2021/06/07 07:34:31;;;;;;;28.17;14.57;;;17.90;99.90;;;;;;5070646;28;20387;-50
2021/06/07 07:36:57;;;;;;;27.63;15.02;;;18.00;99.90;;;;;;5056570;28;20392;-50
2021/06/07 07:39:22;;;;;;;27.95;15.20;;;18.00;99.90;;;;;;5050644;28;20377;-50
2021/06/07 07:41:48;;;;;;;29.77;14.80;;;18.00;99.90;;;;;;5049691;28;20847;-50
2021/06/07 07:44:14;;;;;;;29.83;15.63;;;17.70;99.90;;;;;;5050105;28;20382;-50
2021/06/07 07:46:40;;;;;;;28.27;16.08;;;17.50;99.90;;;;;;5048897;28;20385;-49
2021/06/07 07:49:05;;;;;;;31.27;16.27;;;17.50;99.90;;;;;;5067850;28;20388;-50
2021/06/07 07:51:31;;;;;;;30.33;15.27;;;17.60;99.90;;;;;;5070048;28;20737;-50
2021/06/07 07:53:56;;;;;;;29.33;15.07;;;17.70;99.90;;;;;;5069084;28;20734;-50
2021/06/07 07:56:22;;;;;;;30.87;15.50;;;17.70;99.90;;;;;;5069953;28;20391;-50
2021/06/07 07:58:48;;;;;;;27.60;15.73;;;17.70;99.90;;;;;;5069254;28;20375;-50
2021/06/07 08:01:13;;;;;;;34.08;16.23;;;17.60;99.90;;;;;;5069716;28;20807;-50
2021/06/07 08:03:39;;;;;;;31.20;15.80;;;17.50;99.90;;;;;;5069183;28;20384;-50
2021/06/07 08:06:05;;;;;;;30.47;16.40;;;17.70;99.90;;;;;;5068610;28;20395;-50
2021/06/07 08:08:30;;;;;;;25.80;14.00;;;17.90;99.90;;;;;;5069043;28;20882;-50
2021/06/07 08:10:58;;;;;;;27.83;14.87;;;17.70;99.90;;;;;;5068959;28;20384;-50
2021/06/07 08:13:24;;;;;;;23.02;14.38;;;17.70;99.90;;;;;;5069399;28;20382;-51
2021/06/07 08:15:50;;;;;;;27.58;14.55;;;17.80;99.90;;;;;;5068604;28;20391;-50
2021/06/07 08:18:16;;;;;;;28.38;14.82;;;17.90;99.90;;;;;;5069166;28;20865;-50
2021/06/07 08:20:42;;;;;;;27.80;15.30;;;18.10;99.90;;;;;;5068378;28;20390;-50
2021/06/07 08:23:08;;;;;;;25.50;14.25;;;18.20;99.90;;;;;;5065154;28;20766;-50
2021/06/07 08:25:34;;;;;;;25.90;14.55;;;18.30;99.90;;;;;;5061728;28;20442;-58
2021/06/07 08:28:00;;;;;;;27.10;14.60;;;18.20;99.90;;;;;;5066357;28;21215;-52
2021/06/07 08:30:28;;;;;;;27.20;13.90;;;18.20;99.90;;;;;;5063677;28;20385;-51
2021/06/07 08:32:54;;;;;;;26.70;14.70;;;18.30;99.90;;;;;;5063926;28;20513;-50
2021/06/07 08:35:20;;;;;;;23.03;14.60;;;18.60;99.90;;;;;;5065114;28;20499;-50
2021/06/07 08:37:46;;;;;;;22.63;13.13;;;18.90;99.90;;;;;;5063230;28;20396;-50
2021/06/07 08:40:15;;;;;;;23.17;13.48;;;19.10;99.90;;;;;;5066916;28;20411;-50
2021/06/07 08:42:42;;;;;;;24.48;13.10;;;19.20;99.90;;;;;;5063340;28;20416;-50
2021/06/07 08:45:10;;;;;;;25.92;14.70;;;18.90;99.90;;;;;;5068064;28;20372;-52
2021/06/07 08:47:38;;;;;;;21.98;13.77;;;19.00;99.90;;;;;;5068648;28;20719;-58
2021/06/07 08:50:05;;;;;;;23.98;12.68;;;19.10;99.90;;;;;;5064233;28;20396;-50
2021/06/07 08:52:31;;;;;;;21.45;12.63;;;19.30;99.90;;;;;;5066622;28;20386;-52
2021/06/07 08:54:57;;;;;;;24.83;13.40;;;19.10;99.90;;;;;;5066329;28;20406;-50
2021/06/07 08:57:22;;;;;;;23.10;13.27;;;19.00;99.90;;;;;;5074334;28;20950;-51
2021/06/07 08:59:48;;;;;;;23.05;13.23;;;18.90;99.90;;;;;;5074900;28;20382;-51
2021/06/07 09:02:14;;;;;;;22.15;12.50;;;19.00;99.90;;;;;;5066233;28;20937;-51
2021/06/07 09:04:51;;;;;;;21.83;13.07;;;19.00;99.90;;;;;;5064309;28;20380;-50
2021/06/07 09:07:17;;;;;;;20.63;13.23;;;19.10;99.90;;;;;;5065080;28;20384;-51
2021/06/07 09:10:13;;;;;;;24.20;13.50;;;19.10;99.90;;;;;;5067895;28;20892;-56
2021/06/07 09:12:41;;;;;;;24.33;14.10;;;19.20;99.90;;;;;;5060807;28;20383;-57
2021/06/07 09:15:07;;;;;;;19.60;12.73;;;19.10;99.90;;;;;;5065659;28;20372;-50
2021/06/07 09:17:43;;;;;;;20.80;12.50;;;19.20;99.90;;;;;;5065755;28;20388;-51
2021/06/07 09:20:17;;;;;;;19.80;12.20;;;19.40;99.90;;;;;;5064753;28;20380;-52
2021/06/07 09:22:51;;;;;;;20.02;12.65;;;19.60;99.90;;;;;;5063625;28;20441;-51
2021/06/07 09:25:19;;;;;;;18.25;12.70;;;19.80;99.90;;;;;;5065669;28;20404;-56
2021/06/07 09:28:03;;;;;;;19.30;12.00;;;19.80;99.90;;;;;;5063208;28;20396;-50
2021/06/07 09:30:39;;;;;;;21.15;13.10;;;19.40;99.90;;;;;;5069397;28;20410;-53
2021/06/07 09:33:29;;;;;;;22.42;12.98;;;19.40;99.90;;;;;;5063776;28;20435;-50
2021/06/07 09:36:27;;;;;;;23.40;13.70;;;19.40;99.90;;;;;;5065912;28;20457;-50
2021/06/07 09:39:12;;;;;;;23.38;14.57;;;19.20;99.90;;;;;;5065096;28;20435;-52
2021/06/07 09:41:58;;;;;;;24.35;14.25;;;19.20;99.90;;;;;;5065130;28;20412;-58
2021/06/07 09:44:37;;;;;;;22.88;13.57;;;19.20;99.90;;;;;;5061401;28;20392;-54
2021/06/07 09:47:09;;;;;;;24.00;14.97;;;19.30;99.90;;;;;;5063534;28;20398;-51
2021/06/07 09:49:50;;;;;;;23.58;14.18;;;19.50;99.90;;;;;;5067165;28;20392;-53
2021/06/07 09:52:28;;;;;;;21.48;13.07;;;19.80;99.90;;;;;;5061563;28;20399;-50
2021/06/07 09:55:04;;;;;;;19.88;14.13;;;19.80;99.90;;;;;;5067308;28;20391;-51
2021/06/07 09:57:42;;;;;;;21.30;13.68;;;19.90;99.90;;;;;;5067871;28;20380;-51
2021/06/07 10:00:11;;;;;;;19.33;13.15;;;20.10;99.90;;;;;;5066332;28;20380;-51
2021/06/07 10:02:37;;;;;;;20.58;13.23;;;20.30;99.90;;;;;;5067376;28;20423;-57
2021/06/07 10:05:04;;;;;;;21.45;13.55;;;20.10;99.90;;;;;;5067794;28;20384;-50
2021/06/07 10:07:30;;;;;;;21.85;12.45;;;20.10;99.90;;;;;;5068264;28;20474;-50
2021/06/07 10:10:13;;;;;;;21.57;13.80;;;20.00;99.90;;;;;;5069746;28;20471;-51
2021/06/07 10:12:40;;;;;;;20.48;12.85;;;19.90;99.90;;;;;;5071616;28;20406;-58
2021/06/07 10:15:07;;;;;;;20.27;13.23;;;20.00;99.90;;;;;;5071273;28;20442;-50
2021/06/07 10:17:33;;;;;;;23.13;13.60;;;19.70;99.90;;;;;;5071952;28;20475;-51
2021/06/07 10:22:38;;;;;;;23.83;14.07;;;19.30;99.90;;;;;;5071760;28;20443;-51
2021/06/07 10:25:06;;;;;;;21.15;13.23;;;19.70;99.90;;;;;;5069831;28;20383;-50
2021/06/07 10:27:32;;;;;;;23.50;13.20;;;20.10;99.90;;;;;;5071668;28;20476;-51
2021/06/07 10:29:58;;;;;;;20.07;12.77;;;20.60;99.90;;;;;;5070608;28;21073;-50
2021/06/07 10:32:29;;;;;;;19.50;13.32;;;20.80;99.90;;;;;;5071572;28;20828;-51
2021/06/07 10:34:58;;;;;;;18.77;12.30;;;21.00;99.90;;;;;;5070569;28;20379;-51
2021/06/07 10:37:25;;;;;;;18.45;12.10;;;20.90;99.90;;;;;;5071717;28;20380;-50
2021/06/07 10:39:52;;;;;;;24.95;13.75;;;20.80;99.90;;;;;;5070399;28;20457;-50
2021/06/07 10:42:24;;;;;;;21.75;13.13;;;20.70;99.90;;;;;;5070632;28;20415;-51
2021/06/07 10:44:58;;;;;;;20.55;12.93;;;20.80;99.90;;;;;;5070261;28;20462;-52
2021/06/07 10:47:30;;;;;;;18.00;13.07;;;20.80;99.90;;;;;;5071648;28;20447;-50
2021/06/07 10:49:56;;;;;;;18.77;12.63;;;21.10;99.90;;;;;;5063800;28;20482;-57
2021/06/07 10:52:28;;;;;;;18.50;12.15;;;21.00;99.90;;;;;;5066948;28;20848;-52
2021/06/07 10:54:56;;;;;;;17.73;12.38;;;21.00;99.90;;;;;;5067410;28;20483;-54
2021/06/07 10:57:25;;;;;;;19.13;12.20;;;21.20;99.90;;;;;;5069652;28;20388;-52
2021/06/07 10:59:55;;;;;;;19.75;13.10;;;21.40;99.90;;;;;;5079390;28;20378;-54
2021/06/07 11:02:23;;;;;;;19.15;13.00;;;21.80;99.90;;;;;;5062011;28;20912;-50
2021/06/07 11:05:14;;;;;;;19.95;12.73;;;22.10;99.90;;;;;;5065428;28;20398;-50
2021/06/07 11:08:03;;;;;;;19.38;12.57;;;22.50;99.90;;;;;;5062121;28;20863;-58
2021/06/07 11:10:41;;;;;;;19.83;13.40;;;22.70;99.90;;;;;;5070534;28;20829;-51
2021/06/07 11:13:12;;;;;;;18.65;12.65;;;22.60;99.90;;;;;;5074502;28;20438;-51
2021/06/07 11:15:42;;;;;;;22.42;13.35;;;22.00;99.90;;;;;;5064249;28;20478;-51
2021/06/07 11:18:37;;;;;;;21.67;14.40;;;21.80;99.90;;;;;;5078478;28;20382;-50
2021/06/07 11:21:06;;;;;;;20.13;13.50;;;21.50;99.90;;;;;;5062435;28;20414;-51
2021/06/07 11:23:36;;;;;;;21.08;14.40;;;21.50;99.90;;;;;;5061713;28;20423;-50
2021/06/07 11:26:06;;;;;;;25.30;16.33;;;21.50;99.90;;;;;;5063138;28;20415;-51
2021/06/07 11:28:40;;;;;;;24.25;14.90;;;21.70;99.90;;;;;;5061898;28;20475;-51
2021/06/07 11:31:31;;;;;;;24.05;15.32;;;21.70;99.90;;;;;;5062968;28;20413;-51
2021/06/07 11:34:05;;;;;;;22.83;15.18;;;21.70;99.90;;;;;;5061332;28;20396;-51
2021/06/07 11:36:49;;;;;;;21.42;12.93;;;21.50;99.90;;;;;;5058995;28;20492;-52
2021/06/07 11:39:20;;;;;;;22.40;14.77;;;21.60;99.90;;;;;;5060644;28;20401;-51
2021/06/07 11:41:52;;;;;;;22.40;14.95;;;21.50;99.90;;;;;;5061163;28;20506;-52
2021/06/07 11:44:19;;;;;;;22.55;15.52;;;21.80;99.90;;;;;;5056937;28;20403;-52
2021/06/07 11:46:44;;;;;;;20.70;14.50;;;21.90;99.90;;;;;;5055558;28;20385;-54
2021/06/07 11:49:13;;;;;;;23.30;16.17;;;22.00;99.90;;;;;;5055238;28;20907;-52
2021/06/07 11:51:40;;;;;;;23.83;14.50;;;22.10;99.90;;;;;;5050672;28;20393;-52
2021/06/07 11:54:24;;;;;;;22.90;14.40;;;22.60;99.90;;;;;;5061351;28;20399;-55
2021/06/07 11:56:59;;;;;;;20.60;14.52;;;22.20;99.90;;;;;;5057551;28;20411;-52
2021/06/07 11:59:29;;;;;;;21.77;15.20;;;22.20;99.90;;;;;;5058864;28;20480;-52
2021/06/07 12:01:55;;;;;;;24.10;14.63;;;21.90;99.90;;;;;;5050474;28;20446;-52
2021/06/07 12:04:30;;;;;;;16.40;11.98;;;21.60;99.90;;;;;;5050724;28;20847;-53
2021/06/07 12:07:01;;;;;;;19.55;14.05;;;21.70;99.90;;;;;;5053374;28;20428;-52
2021/06/07 12:09:28;;;;;;;19.42;13.95;;;21.70;99.90;;;;;;5050441;28;20393;-52
2021/06/07 12:11:55;;;;;;;22.08;14.20;;;21.60;99.90;;;;;;5049198;28;20386;-51
2021/06/07 12:14:28;;;;;;;19.17;13.65;;;21.60;99.90;;;;;;5050301;28;20397;-52
2021/06/07 12:17:01;;;;;;;18.75;12.85;;;21.60;99.90;;;;;;5048979;28;20404;-51
2021/06/07 12:19:54;;;;;;;19.17;13.50;;;21.50;99.90;;;;;;5049890;28;20381;-51
2021/06/07 12:22:29;;;;;;;19.13;13.30;;;21.20;99.90;;;;;;5047766;28;20424;-51
2021/06/07 12:30:25;;;;;;;20.15;13.95;;;21.10;99.90;;;;;;5049813;28;20408;-52
2021/06/07 12:32:53;;;;;;;22.90;14.60;;;21.00;99.90;;;;;;5048119;28;20409;-52
2021/06/07 12:35:20;;;;;;;22.52;15.00;;;21.10;99.90;;;;;;5049758;28;20435;-52
2021/06/07 12:37:48;;;;;;;23.88;15.82;;;21.30;99.90;;;;;;5048909;28;20463;-52
2021/06/07 12:40:43;;;;;;;24.97;16.27;;;21.30;99.90;;;;;;5049779;28;20389;-53
2021/06/07 12:43:09;;;;;;;25.25;17.50;;;21.10;99.90;;;;;;5049230;28;20496;-51